Time;durP1;ratioP1;P1;durP2;ratioP2;P2;SDS_P1;SDS_P2;PMS_P1;PMS_P2;Temp;Humidity;BMP_temperature;BMP_pressure;BME280_temperature;BME280_humidity;BME280_pressure;Samples;Min_cycle;Max_cycle;Signal;HPM_P1;HPM_P2
2023/10/02 00:05:07;;;;;;;22.25;12.65;;;18.00;99.90;;;;;;6269098;22;20697;-91
2023/10/02 00:07:33;;;;;;;22.98;13.60;;;18.10;99.90;;;;;;6243171;22;20364;-92
2023/10/02 00:10:00;;;;;;;27.17;14.60;;;18.20;99.90;;;;;;6244161;22;20361;-91
2023/10/02 00:12:28;;;;;;;25.40;14.65;;;18.00;99.90;;;;;;6242256;22;20368;-91
2023/10/02 00:14:55;;;;;;;23.60;14.02;;;18.10;99.90;;;;;;6243980;22;20860;-92
2023/10/02 00:17:22;;;;;;;27.15;15.77;;;18.00;99.90;;;;;;6267659;22;20372;-91
2023/10/02 00:19:57;;;;;;;25.67;14.83;;;18.40;99.90;;;;;;6243717;22;20469;-92
2023/10/02 00:22:37;;;;;;;23.13;13.80;;;18.00;99.90;;;;;;6243359;22;20400;-91
2023/10/02 00:25:16;;;;;;;25.98;14.52;;;18.30;99.90;;;;;;6242401;22;20373;-92
2023/10/02 00:27:48;;;;;;;22.58;13.75;;;18.10;99.90;;;;;;6243879;22;20364;-91
2023/10/02 00:30:15;;;;;;;22.60;13.82;;;18.20;99.90;;;;;;6242452;22;20368;-90
2023/10/02 00:32:43;;;;;;;26.17;15.15;;;18.00;99.90;;;;;;6269642;22;20463;-90
2023/10/02 00:35:12;;;;;;;28.67;16.07;;;18.10;99.90;;;;;;6242438;22;20377;-92
2023/10/02 00:37:47;;;;;;;26.70;14.48;;;18.20;99.90;;;;;;6268470;22;20450;-92
2023/10/02 00:40:22;;;;;;;23.95;15.30;;;17.90;99.90;;;;;;6243484;22;20364;-91
2023/10/02 00:42:56;;;;;;;24.40;14.93;;;17.90;99.90;;;;;;6241705;22;20469;-91
2023/10/02 00:45:23;;;;;;;24.83;14.75;;;17.80;99.90;;;;;;6269160;22;20450;-90
2023/10/02 00:47:50;;;;;;;26.48;16.27;;;18.00;99.90;;;;;;6267492;22;20375;-90
2023/10/02 00:50:19;;;;;;;27.77;17.08;;;18.00;99.90;;;;;;6268897;22;20369;-92
2023/10/02 00:52:49;;;;;;;26.52;16.05;;;17.60;99.90;;;;;;6242587;22;20376;-91
2023/10/02 00:55:24;;;;;;;25.05;15.35;;;17.60;99.90;;;;;;6267944;22;20372;-91
2023/10/02 00:57:53;;;;;;;26.07;17.07;;;17.80;99.90;;;;;;6268396;22;20368;-90
2023/10/02 01:00:21;;;;;;;29.15;17.55;;;17.80;99.90;;;;;;6241725;22;20400;-91
2023/10/02 01:02:49;;;;;;;28.17;17.35;;;17.60;99.90;;;;;;6268935;22;20384;-91
2023/10/02 01:05:17;;;;;;;33.72;18.08;;;17.60;99.90;;;;;;6241985;22;20837;-91
2023/10/02 01:07:44;;;;;;;24.23;15.70;;;17.40;99.90;;;;;;6242707;22;20849;-91
2023/10/02 01:10:19;;;;;;;31.58;18.17;;;18.10;99.90;;;;;;6243006;22;20379;-91
2023/10/02 01:12:49;;;;;;;27.80;17.90;;;17.30;99.90;;;;;;6242061;22;20364;-92
2023/10/02 01:15:26;;;;;;;27.20;17.00;;;17.30;99.90;;;;;;6243058;22;20391;-91
2023/10/02 01:17:52;;;;;;;28.98;17.33;;;17.50;99.90;;;;;;6266707;22;20681;-91
2023/10/02 01:20:33;;;;;;;28.45;17.60;;;17.20;99.90;;;;;;6242565;22;20417;-91
2023/10/02 01:23:16;;;;;;;27.05;17.42;;;17.20;99.90;;;;;;6267782;22;20371;-91
2023/10/02 01:25:47;;;;;;;30.50;17.40;;;17.20;99.90;;;;;;6241398;22;20380;-90
2023/10/02 01:28:15;;;;;;;30.27;19.02;;;17.60;99.90;;;;;;6268246;22;20372;-91
2023/10/02 01:30:44;;;;;;;29.15;18.50;;;17.70;99.90;;;;;;6241240;22;20373;-90
2023/10/02 01:33:26;;;;;;;30.52;20.58;;;17.30;99.90;;;;;;6268426;22;20972;-91
2023/10/02 01:35:54;;;;;;;30.67;19.20;;;18.00;99.90;;;;;;6267499;22;20368;-90
2023/10/02 01:38:30;;;;;;;34.75;21.67;;;17.90;99.90;;;;;;6267702;22;20369;-92
2023/10/02 01:41:09;;;;;;;29.97;19.43;;;17.30;99.90;;;;;;6243230;22;20392;-91
2023/10/02 01:43:39;;;;;;;35.47;20.80;;;17.30;99.90;;;;;;6241280;22;20356;-90
2023/10/02 01:46:08;;;;;;;34.13;21.13;;;17.30;99.90;;;;;;6243179;22;20379;-91
2023/10/02 01:48:44;;;;;;;28.63;19.45;;;17.30;99.90;;;;;;6267161;22;20814;-91
2023/10/02 01:51:21;;;;;;;29.55;18.85;;;17.40;99.90;;;;;;6267959;22;20757;-90
2023/10/02 01:54:02;;;;;;;31.83;20.10;;;17.70;99.90;;;;;;6243342;22;20376;-91
2023/10/02 01:56:34;;;;;;;31.70;20.87;;;17.30;99.90;;;;;;6241428;22;20365;-91
2023/10/02 02:01:57;;;;;;;29.43;19.30;;;17.40;99.90;;;;;;6241656;22;20699;-91
2023/10/02 02:04:28;;;;;;;31.33;19.75;;;17.60;99.90;;;;;;6241974;22;20465;-91
2023/10/02 02:06:56;;;;;;;31.67;19.45;;;17.60;99.90;;;;;;6243695;22;21237;-91
2023/10/02 02:09:35;;;;;;;32.60;20.73;;;17.30;99.90;;;;;;6266786;22;20372;-91
2023/10/02 02:12:14;;;;;;;32.92;19.88;;;17.30;99.90;;;;;;6268680;22;20365;-90
2023/10/02 02:14:51;;;;;;;26.25;18.52;;;17.20;99.90;;;;;;6241910;22;20718;-90
2023/10/02 02:17:18;;;;;;;30.90;20.17;;;17.20;99.90;;;;;;6242410;22;20833;-91
2023/10/02 02:19:50;;;;;;;29.45;19.25;;;17.30;99.90;;;;;;6243066;22;20441;-91
2023/10/02 02:22:23;;;;;;;29.00;19.88;;;17.20;99.90;;;;;;6241264;22;20388;-91
2023/10/02 02:24:50;;;;;;;31.80;20.95;;;17.10;99.90;;;;;;6268505;22;20391;-91
2023/10/02 02:27:19;;;;;;;31.88;19.77;;;17.10;99.90;;;;;;6241444;22;20912;-91
2023/10/02 02:29:46;;;;;;;35.15;22.63;;;17.10;99.90;;;;;;6242811;22;20367;-90
2023/10/02 02:32:12;;;;;;;30.80;21.15;;;17.00;99.90;;;;;;6267754;22;20418;-89
2023/10/02 02:34:38;;;;;;;32.67;21.07;;;17.40;99.90;;;;;;6267439;22;20865;-91
2023/10/02 02:37:06;;;;;;;31.02;20.98;;;17.00;99.90;;;;;;6242062;22;20510;-90
2023/10/02 02:39:37;;;;;;;31.77;20.75;;;17.20;99.90;;;;;;6266891;22;20371;-91
2023/10/02 02:42:09;;;;;;;35.60;21.92;;;17.00;99.90;;;;;;6244989;22;20454;-91
2023/10/02 02:44:41;;;;;;;34.10;21.83;;;16.90;99.90;;;;;;6243135;22;20403;-91
2023/10/02 02:47:12;;;;;;;32.80;20.90;;;16.90;99.90;;;;;;6244666;22;20368;-91
2023/10/02 02:49:50;;;;;;;33.28;21.80;;;17.00;99.90;;;;;;6243905;22;20383;-91
2023/10/02 02:52:26;;;;;;;38.30;23.20;;;16.90;99.90;;;;;;6268676;22;20364;-91
2023/10/02 02:54:58;;;;;;;34.97;22.27;;;16.80;99.90;;;;;;6244380;22;20455;-90
2023/10/02 02:57:29;;;;;;;33.47;21.95;;;16.80;99.90;;;;;;6242728;22;20864;-91
2023/10/02 03:02:53;;;;;;;32.80;22.45;;;16.70;99.90;;;;;;6269552;22;20400;-91
2023/10/02 03:05:22;;;;;;;32.38;21.80;;;17.00;99.90;;;;;;6242600;22;20367;-90
2023/10/02 03:07:56;;;;;;;28.45;19.80;;;16.70;99.90;;;;;;6269923;22;20836;-90
2023/10/02 03:10:23;;;;;;;35.42;22.80;;;16.60;99.90;;;;;;6268338;22;20372;-90
2023/10/02 03:12:51;;;;;;;37.40;24.02;;;16.60;99.90;;;;;;6270203;22;20854;-91
2023/10/02 03:15:45;;;;;;;39.10;25.17;;;16.60;99.90;;;;;;6268496;22;20357;-91
2023/10/02 03:18:30;;;;;;;35.97;24.50;;;16.50;99.90;;;;;;6268456;22;20462;-91
2023/10/02 03:21:34;;;;;;;35.92;23.33;;;16.50;99.90;;;;;;6244373;22;20392;-90
2023/10/02 03:23:54;;;;;;;39.53;26.58;;;16.50;99.90;;;;;;6260677;22;20364;-90
2023/10/02 03:26:27;;;;;;;35.17;23.45;;;16.50;99.90;;;;;;6268943;22;20406;-91
2023/10/02 03:29:03;;;;;;;43.60;27.35;;;16.40;99.90;;;;;;6269270;22;20368;-90
2023/10/02 03:31:37;;;;;;;41.10;26.10;;;16.40;99.90;;;;;;6267527;22;20686;-91
2023/10/02 03:36:55;;;;;;;35.40;24.83;;;16.30;99.90;;;;;;6268172;22;20448;-90
2023/10/02 03:39:51;;;;;;;37.05;25.13;;;16.60;99.90;;;;;;6243225;22;20378;-91
2023/10/02 03:42:12;;;;;;;36.42;24.75;;;16.20;99.90;;;;;;6269316;22;20396;-91
2023/10/02 03:44:39;;;;;;;29.85;21.98;;;16.20;99.90;;;;;;6267856;22;21120;-90
2023/10/02 03:47:04;;;;;;;40.05;26.42;;;16.20;99.90;;;;;;6244233;22;20364;-91
2023/10/02 03:49:33;;;;;;;43.47;28.63;;;16.50;99.90;;;;;;6267616;22;20879;-91
2023/10/02 03:51:58;;;;;;;42.60;27.50;;;16.50;99.90;;;;;;6269026;22;20880;-91
2023/10/02 03:54:27;;;;;;;43.97;27.93;;;16.50;99.90;;;;;;6242777;22;20376;-90
2023/10/02 03:56:56;;;;;;;42.72;27.77;;;16.90;99.90;;;;;;6268074;22;20369;-90
2023/10/02 03:59:26;;;;;;;46.88;29.40;;;16.40;99.90;;;;;;6243608;22;20400;-91
2023/10/02 04:01:55;;;;;;;46.33;30.13;;;16.20;99.90;;;;;;6267186;22;20465;-91
2023/10/02 04:04:24;;;;;;;44.13;29.45;;;16.30;99.90;;;;;;6268919;22;20360;-90
2023/10/02 04:06:55;;;;;;;45.45;29.67;;;16.50;99.90;;;;;;6267107;22;20368;-90
2023/10/02 04:09:25;;;;;;;45.27;29.80;;;16.50;99.90;;;;;;6242993;22;20495;-91
2023/10/02 04:11:52;;;;;;;52.70;32.33;;;16.10;99.90;;;;;;6268532;22;20438;-91
2023/10/02 04:14:31;;;;;;;40.20;26.60;;;16.70;99.90;;;;;;6242340;22;20501;-92
2023/10/02 04:19:51;;;;;;;49.58;31.58;;;16.10;99.90;;;;;;6267822;22;20372;-90
2023/10/02 04:22:19;;;;;;;45.70;28.95;;;16.10;99.90;;;;;;6243509;22;20391;-92
2023/10/02 04:24:58;;;;;;;45.15;29.77;;;16.10;99.90;;;;;;6268302;22;20375;-91
2023/10/02 04:28:00;;;;;;;47.40;31.13;;;16.40;99.90;;;;;;6242319;22;20372;-90
2023/10/02 04:32:49;;;;;;;45.70;29.33;;;16.20;99.90;;;;;;6267508;22;20375;-92
2023/10/02 04:38:07;;;;;;;47.88;30.25;;;16.10;99.90;;;;;;6268299;22;20399;-90
2023/10/02 04:40:52;;;;;;;40.70;27.58;;;16.10;99.90;;;;;;6241983;22;20698;-92
2023/10/02 04:43:23;;;;;;;46.15;29.55;;;16.10;99.90;;;;;;6269231;22;20376;-92
2023/10/02 04:46:14;;;;;;;48.97;30.53;;;16.10;99.90;;;;;;6267882;22;20761;-92
2023/10/02 04:48:42;;;;;;;44.60;28.27;;;16.00;99.90;;;;;;6269233;22;20367;-91
2023/10/02 04:51:09;;;;;;;44.13;27.88;;;16.20;99.90;;;;;;6243710;22;20376;-92
2023/10/02 04:53:35;;;;;;;44.97;28.97;;;16.10;99.90;;;;;;6242796;22;20418;-92
2023/10/02 04:56:21;;;;;;;43.83;27.67;;;16.00;99.90;;;;;;6244107;22;20376;-92
2023/10/02 04:58:49;;;;;;;43.17;27.38;;;16.00;99.90;;;;;;6241541;22;20419;-91
2023/10/02 05:01:28;;;;;;;39.45;25.73;;;16.00;99.90;;;;;;6268944;22;20388;-92
2023/10/02 05:03:55;;;;;;;38.35;25.83;;;15.90;99.90;;;;;;6243006;22;20376;-91
2023/10/02 05:06:44;;;;;;;38.90;26.00;;;15.70;99.90;;;;;;6241698;22;20368;-91
2023/10/02 05:09:25;;;;;;;39.45;26.02;;;15.70;99.90;;;;;;6244191;22;20726;-93
2023/10/02 05:11:58;;;;;;;47.15;29.95;;;15.90;99.90;;;;;;6242195;22;20461;-92
2023/10/02 05:14:29;;;;;;;39.90;25.90;;;15.80;99.90;;;;;;6268506;22;20439;-91
2023/10/02 05:17:17;;;;;;;37.17;24.98;;;15.80;99.90;;;;;;6242831;22;20383;-90
2023/10/02 05:19:56;;;;;;;32.03;22.45;;;15.80;99.90;;;;;;6266837;22;20378;-91
2023/10/02 05:22:27;;;;;;;39.70;25.85;;;16.20;99.90;;;;;;6243502;22;20399;-91
2023/10/02 05:24:59;;;;;;;43.70;27.90;;;15.70;99.90;;;;;;6241269;22;20376;-91
2023/10/02 05:27:30;;;;;;;37.90;25.92;;;15.70;99.90;;;;;;6268003;22;20375;-91
2023/10/02 05:30:00;;;;;;;48.60;24.25;;;15.70;99.90;;;;;;6268426;22;20400;-91
2023/10/02 05:32:35;;;;;;;44.23;27.47;;;15.70;99.90;;;;;;6266875;22;21110;-91
2023/10/02 05:37:33;;;;;;;46.10;28.45;;;15.60;99.90;;;;;;6266079;22;20705;-91
2023/10/02 05:48:15;;;;;;;50.80;31.17;;;15.90;99.90;;;;;;6269346;22;20371;-90
2023/10/02 05:50:48;;;;;;;41.00;26.58;;;15.60;99.90;;;;;;6241556;22;21167;-91
2023/10/02 05:53:19;;;;;;;41.90;28.23;;;15.60;99.90;;;;;;6268547;22;20434;-91
2023/10/02 05:55:57;;;;;;;48.67;29.23;;;15.60;99.90;;;;;;6267565;22;20375;-91
2023/10/02 05:58:32;;;;;;;38.38;25.38;;;16.00;99.90;;;;;;6241357;22;20369;-92
2023/10/02 06:01:04;;;;;;;43.10;27.42;;;15.60;99.90;;;;;;6242185;22;20391;-91
2023/10/02 06:03:34;;;;;;;39.90;26.35;;;15.70;99.90;;;;;;6241039;22;20368;-89
2023/10/02 06:06:23;;;;;;;44.88;27.55;;;15.70;99.90;;;;;;6268198;22;20383;-91
2023/10/02 06:09:01;;;;;;;44.33;27.65;;;15.90;99.90;;;;;;6241823;22;20368;-90
2023/10/02 06:11:27;;;;;;;44.78;28.23;;;15.90;99.90;;;;;;6241214;22;20880;-91
2023/10/02 06:14:10;;;;;;;50.97;31.00;;;15.70;99.90;;;;;;6243124;22;20384;-91
2023/10/02 06:16:40;;;;;;;43.93;27.87;;;15.80;99.90;;;;;;6243111;22;20399;-92
2023/10/02 06:19:13;;;;;;;48.92;31.17;;;15.70;99.90;;;;;;6270181;22;20705;-90
2023/10/02 06:21:47;;;;;;;58.92;33.30;;;15.60;99.90;;;;;;6269897;22;20402;-91
2023/10/02 06:24:17;;;;;;;53.03;32.08;;;16.10;99.90;;;;;;6271339;22;20391;-92
2023/10/02 06:26:55;;;;;;;58.00;34.00;;;15.80;99.90;;;;;;6276474;22;20398;-93
2023/10/02 06:29:24;;;;;;;49.65;30.05;;;16.00;99.90;;;;;;6248813;22;20412;-92
2023/10/02 06:32:05;;;;;;;46.47;29.17;;;15.90;99.90;;;;;;6250791;22;20456;-93
2023/10/02 06:34:38;;;;;;;49.97;30.13;;;15.90;99.90;;;;;;6275071;22;20424;-91
2023/10/02 06:37:07;;;;;;;50.40;31.60;;;15.90;99.90;;;;;;6274868;22;20370;-92
2023/10/02 06:39:35;;;;;;;51.63;31.25;;;16.20;99.90;;;;;;6250451;22;20409;-91
2023/10/02 06:42:19;;;;;;;55.15;32.05;;;16.20;99.90;;;;;;6273485;22;20394;-91
2023/10/02 06:44:54;;;;;;;52.90;31.17;;;16.20;99.90;;;;;;6275134;22;20363;-90
2023/10/02 06:47:24;;;;;;;52.88;32.50;;;16.30;99.90;;;;;;6273937;22;20363;-91
2023/10/02 06:49:51;;;;;;;49.50;30.07;;;16.20;99.90;;;;;;6248822;22;20375;-91
2023/10/02 06:52:20;;;;;;;47.90;30.27;;;16.30;99.90;;;;;;6249307;22;20393;-91
2023/10/02 06:54:56;;;;;;;50.90;31.67;;;16.40;99.90;;;;;;6273461;22;20370;-90
2023/10/02 06:57:24;;;;;;;55.33;31.85;;;16.40;99.90;;;;;;6275691;22;20366;-90
2023/10/02 06:59:51;;;;;;;50.38;31.38;;;16.60;99.90;;;;;;6273149;22;20362;-91
2023/10/02 07:02:23;;;;;;;50.13;31.25;;;16.60;99.90;;;;;;6274705;22;20387;-92
2023/10/02 07:04:53;;;;;;;48.83;29.77;;;16.70;99.90;;;;;;6248816;22;20375;-91
2023/10/02 07:07:26;;;;;;;49.08;29.63;;;16.80;99.90;;;;;;6248635;22;20370;-91
2023/10/02 07:10:07;;;;;;;44.05;29.08;;;16.90;99.90;;;;;;6249383;22;20362;-90
2023/10/02 07:12:39;;;;;;;45.92;29.50;;;17.00;99.90;;;;;;6247752;22;20879;-91
2023/10/02 07:15:13;;;;;;;52.00;32.00;;;17.10;99.90;;;;;;6250556;22;20445;-90
2023/10/02 07:17:48;;;;;;;48.00;30.63;;;17.20;99.90;;;;;;6248516;22;20443;-90
2023/10/02 07:20:15;;;;;;;49.22;31.33;;;17.30;99.90;;;;;;6249040;22;20839;-92
2023/10/02 07:22:41;;;;;;;50.93;32.07;;;17.40;99.90;;;;;;6249462;22;20396;-90
2023/10/02 07:25:08;;;;;;;48.90;31.88;;;17.70;99.90;;;;;;6248110;22;20440;-93
2023/10/02 07:27:37;;;;;;;47.60;30.40;;;17.60;99.90;;;;;;6275568;22;20370;-92
2023/10/02 07:30:04;;;;;;;44.33;28.48;;;17.70;99.90;;;;;;6247513;22;20358;-90
2023/10/02 07:32:32;;;;;;;45.13;29.38;;;17.80;99.90;;;;;;6250035;22;20508;-91
2023/10/02 07:35:21;;;;;;;44.78;30.08;;;18.10;99.90;;;;;;6274007;22;20443;-92
2023/10/02 07:37:57;;;;;;;43.37;29.53;;;17.90;99.90;;;;;;6248313;22;20366;-93
2023/10/02 07:40:26;;;;;;;44.13;29.63;;;18.20;99.90;;;;;;6249717;22;20370;-92
2023/10/02 07:42:52;;;;;;;43.05;29.25;;;18.50;99.90;;;;;;6272831;22;20418;-92
2023/10/02 07:45:30;;;;;;;44.87;29.60;;;18.20;99.90;;;;;;6275362;22;20367;-91
2023/10/02 07:48:08;;;;;;;45.67;29.52;;;18.20;99.90;;;;;;6248645;22;20698;-93
2023/10/02 07:50:35;;;;;;;47.60;31.45;;;18.30;99.90;;;;;;6248461;22;20414;-93
2023/10/02 07:53:04;;;;;;;43.83;29.40;;;18.40;99.90;;;;;;6249852;22;20365;-91
2023/10/02 07:55:31;;;;;;;46.13;28.95;;;18.50;99.90;;;;;;6273064;22;20469;-90
2023/10/02 07:58:01;;;;;;;45.92;30.13;;;18.50;99.90;;;;;;6275402;22;20801;-91
2023/10/02 08:00:37;;;;;;;44.80;29.17;;;18.70;99.90;;;;;;6247657;22;20367;-92
2023/10/02 08:03:31;;;;;;;45.75;29.02;;;18.60;99.90;;;;;;6249159;22;20387;-92
2023/10/02 08:05:56;;;;;;;45.90;30.60;;;18.60;99.90;;;;;;6274698;22;20366;-93
2023/10/02 08:08:25;;;;;;;42.00;29.10;;;18.60;99.90;;;;;;6247781;22;20371;-91
2023/10/02 08:10:52;;;;;;;43.78;28.27;;;19.10;99.90;;;;;;6249585;22;20398;-92
2023/10/02 08:13:32;;;;;;;42.60;28.95;;;18.60;99.90;;;;;;6247606;22;20412;-91
2023/10/02 08:16:17;;;;;;;40.75;27.38;;;18.90;99.90;;;;;;6249135;22;20359;-92
2023/10/02 08:18:57;;;;;;;43.33;29.15;;;18.90;99.90;;;;;;6248911;22;20378;-92
2023/10/02 08:21:35;;;;;;;39.25;28.23;;;19.20;99.90;;;;;;6247552;22;20387;-93
2023/10/02 08:24:05;;;;;;;42.72;28.83;;;19.10;99.90;;;;;;6249648;22;20450;-91
2023/10/02 08:26:38;;;;;;;43.60;28.87;;;19.00;99.90;;;;;;6247698;22;20948;-92
2023/10/02 08:29:08;;;;;;;39.80;27.08;;;19.50;99.90;;;;;;6274472;22;20870;-93
2023/10/02 08:31:42;;;;;;;36.37;25.73;;;19.40;99.90;;;;;;6248613;22;20385;-92
2023/10/02 08:34:09;;;;;;;39.20;26.42;;;19.60;99.90;;;;;;6272987;22;20367;-91
2023/10/02 08:36:37;;;;;;;41.08;28.05;;;19.80;99.90;;;;;;6249329;22;20859;-91
2023/10/02 08:39:04;;;;;;;41.40;27.27;;;19.80;99.90;;;;;;6246962;22;20367;-92
2023/10/02 08:41:30;;;;;;;42.28;27.80;;;19.40;99.90;;;;;;6249226;22;20883;-93
2023/10/02 08:44:00;;;;;;;39.80;26.67;;;19.40;99.90;;;;;;6247490;22;20416;-92
2023/10/02 08:46:26;;;;;;;44.17;27.48;;;19.30;99.90;;;;;;6274863;22;20707;-92
2023/10/02 08:48:55;;;;;;;44.70;28.38;;;19.40;99.90;;;;;;6274390;22;20365;-93
2023/10/02 08:51:33;;;;;;;43.15;28.08;;;19.80;99.90;;;;;;6273231;22;20374;-92
2023/10/02 08:54:05;;;;;;;42.83;27.95;;;19.40;99.90;;;;;;6274796;22;20381;-95
2023/10/02 08:56:43;;;;;;;38.35;26.73;;;19.40;99.90;;;;;;6247710;22;20362;-92
2023/10/02 08:59:26;;;;;;;41.17;27.13;;;19.50;99.90;;;;;;6246218;22;20448;-93
2023/10/02 09:02:15;;;;;;;42.72;27.60;;;20.00;99.90;;;;;;6248370;22;20429;-93
2023/10/02 09:04:52;;;;;;;43.47;27.38;;;19.70;99.90;;;;;;6273026;22;20382;-91
2023/10/02 09:07:44;;;;;;;40.03;26.85;;;19.90;99.90;;;;;;6248814;22;20374;-92
2023/10/02 09:10:24;;;;;;;43.67;28.65;;;20.20;99.90;;;;;;6273321;22;20691;-92
2023/10/02 09:13:19;;;;;;;45.38;28.13;;;20.00;99.90;;;;;;6273886;22;20397;-91
2023/10/02 09:15:53;;;;;;;41.38;27.38;;;20.00;99.90;;;;;;6248287;22;20421;-89
2023/10/02 09:19:07;;;;;;;40.67;27.40;;;20.00;99.90;;;;;;6245067;22;20424;-88
2023/10/02 09:21:22;;;;;;;40.35;28.05;;;20.00;99.90;;;;;;6271471;22;20894;-90
2023/10/02 09:23:51;;;;;;;44.67;28.60;;;20.10;99.90;;;;;;6271926;22;20446;-89
2023/10/02 09:26:17;;;;;;;41.70;27.90;;;20.20;99.90;;;;;;6244362;22;20414;-89
2023/10/02 09:28:58;;;;;;;40.80;26.67;;;20.40;99.90;;;;;;6270804;22;20370;-88
2023/10/02 09:31:35;;;;;;;43.50;27.80;;;20.40;99.90;;;;;;6244269;22;20904;-89
2023/10/02 09:34:16;;;;;;;41.80;27.33;;;20.30;99.90;;;;;;6246373;22;20371;-90
2023/10/02 09:36:54;;;;;;;43.80;28.23;;;20.40;99.90;;;;;;6246567;22;20692;-88
2023/10/02 09:39:31;;;;;;;44.22;28.00;;;20.60;99.90;;;;;;6244857;22;20389;-89
2023/10/02 09:42:07;;;;;;;39.85;27.20;;;21.00;99.90;;;;;;6246394;22;20702;-90
2023/10/02 09:44:40;;;;;;;41.97;26.45;;;21.10;99.90;;;;;;6245060;22;20386;-89
2023/10/02 09:47:08;;;;;;;45.03;27.73;;;20.70;99.90;;;;;;6272208;22;20375;-90
2023/10/02 09:49:42;;;;;;;40.08;26.00;;;20.80;99.90;;;;;;6246990;22;20363;-90
2023/10/02 09:52:16;;;;;;;42.05;26.02;;;21.10;99.90;;;;;;6247540;22;20398;-94
2023/10/02 09:55:03;;;;;;;36.70;24.02;;;21.00;99.90;;;;;;6249547;22;20438;-92
2023/10/02 09:57:36;;;;;;;38.13;24.35;;;21.00;99.90;;;;;;6247485;22;20402;-90
2023/10/02 10:00:33;;;;;;;39.28;24.65;;;21.30;99.90;;;;;;6248952;22;20358;-91
2023/10/02 10:03:22;;;;;;;36.20;24.35;;;21.10;99.90;;;;;;6274163;22;20390;-90
2023/10/02 10:06:06;;;;;;;45.00;27.05;;;21.10;99.90;;;;;;6246976;22;21024;-91
2023/10/02 10:11:39;;;;;;;37.27;25.13;;;21.10;99.90;;;;;;6274731;22;20366;-90
2023/10/02 10:14:36;;;;;;;34.42;23.85;;;21.20;99.90;;;;;;6247368;22;20382;-91
2023/10/02 10:17:13;;;;;;;36.58;23.60;;;21.40;99.90;;;;;;6276327;22;20894;-92
2023/10/02 10:20:39;;;;;;;34.07;22.27;;;21.50;99.90;;;;;;6273069;22;20371;-93
2023/10/02 10:22:40;;;;;;;34.88;24.00;;;21.70;99.90;;;;;;6250677;22;20477;-91
2023/10/02 10:27:56;;;;;;;35.80;23.23;;;22.20;99.90;;;;;;6273153;22;20462;-93
2023/10/02 10:30:25;;;;;;;36.03;24.77;;;21.90;99.90;;;;;;6247077;22;20385;-90
2023/10/02 10:35:41;;;;;;;34.88;24.60;;;22.20;99.90;;;;;;6273104;22;20414;-90
2023/10/02 10:38:22;;;;;;;37.28;25.08;;;22.20;99.90;;;;;;6274604;22;20375;-89
2023/10/02 10:41:00;;;;;;;34.55;25.25;;;22.00;99.90;;;;;;6246767;22;20378;-90
2023/10/02 10:46:28;;;;;;;31.55;23.10;;;21.90;99.90;;;;;;6274046;22;20371;-89
2023/10/02 10:49:07;;;;;;;31.63;22.75;;;22.00;99.90;;;;;;6246705;22;20367;-90
2023/10/02 10:51:37;;;;;;;27.77;20.90;;;22.10;99.90;;;;;;6274660;22;21134;-91
2023/10/02 10:54:13;;;;;;;30.02;21.65;;;22.10;99.90;;;;;;6247589;22;20359;-90
2023/10/02 10:56:43;;;;;;;30.85;22.35;;;22.10;99.90;;;;;;6248295;22;20398;-90
2023/10/02 10:59:21;;;;;;;30.85;23.27;;;22.20;99.90;;;;;;6273754;22;20366;-90
2023/10/02 11:04:34;;;;;;;37.65;25.35;;;22.30;99.90;;;;;;6274082;22;20363;-90
2023/10/02 11:07:00;;;;;;;32.47;23.80;;;22.40;99.90;;;;;;6247051;22;20885;-90
2023/10/02 11:09:25;;;;;;;32.55;23.13;;;22.50;99.90;;;;;;6248496;22;20374;-89
2023/10/02 11:11:53;;;;;;;31.87;23.63;;;22.60;99.90;;;;;;6273602;22;20371;-91
2023/10/02 11:14:34;;;;;;;35.90;24.40;;;22.70;99.90;;;;;;6246688;22;20363;-90
2023/10/02 11:17:11;;;;;;;34.73;23.40;;;22.50;99.90;;;;;;6273783;22;20367;-93
2023/10/02 11:19:46;;;;;;;31.90;22.63;;;22.40;99.90;;;;;;6248563;22;20915;-92
2023/10/02 11:22:15;;;;;;;32.55;22.77;;;22.50;99.90;;;;;;6250439;22;20536;-94
2023/10/02 11:24:55;;;;;;;30.20;23.20;;;22.60;99.90;;;;;;6244240;22;20380;-94
2023/10/02 11:27:24;;;;;;;31.33;22.85;;;22.80;99.90;;;;;;6244011;22;20375;-94
2023/10/02 11:30:01;;;;;;;28.10;22.25;;;23.20;99.90;;;;;;6220071;22;20383;-92
2023/10/02 11:32:58;;;;;;;29.15;22.17;;;23.00;99.90;;;;;;6217643;22;20360;-93
2023/10/02 11:35:37;;;;;;;31.53;22.80;;;23.00;99.90;;;;;;6219562;22;20452;-93
2023/10/02 11:38:07;;;;;;;31.85;23.17;;;23.00;99.90;;;;;;6219927;22;20376;-95
2023/10/02 11:40:33;;;;;;;29.73;22.17;;;23.10;99.90;;;;;;6217743;22;20459;-94
2023/10/02 11:42:59;;;;;;;30.63;22.70;;;23.10;99.90;;;;;;6245223;22;20441;-94
2023/10/02 11:45:29;;;;;;;31.23;23.87;;;23.20;99.90;;;;;;6242704;22;20360;-92
2023/10/02 11:47:55;;;;;;;29.23;23.08;;;23.30;99.90;;;;;;6219591;22;20399;-92
2023/10/02 11:50:22;;;;;;;30.17;22.83;;;23.20;99.90;;;;;;6217525;22;20361;-91
2023/10/02 11:52:47;;;;;;;28.50;21.77;;;23.20;99.90;;;;;;6244611;22;20451;-93
2023/10/02 11:55:17;;;;;;;30.93;22.77;;;23.10;99.90;;;;;;6219165;22;20368;-93
2023/10/02 11:57:51;;;;;;;28.42;21.80;;;23.20;99.90;;;;;;6218054;22;20365;-93
2023/10/02 12:00:24;;;;;;;31.70;22.67;;;23.10;99.90;;;;;;6244834;22;20365;-94
2023/10/02 12:02:49;;;;;;;28.10;21.00;;;23.10;99.90;;;;;;6217441;22;20734;-93
2023/10/02 12:05:16;;;;;;;28.80;21.80;;;23.10;99.90;;;;;;6219614;22;20371;-93
2023/10/02 12:07:44;;;;;;;26.65;20.00;;;23.10;99.90;;;;;;6217772;22;20376;-92
2023/10/02 12:10:15;;;;;;;27.25;20.10;;;23.40;99.90;;;;;;6243964;22;20380;-94
2023/10/02 12:12:45;;;;;;;29.33;20.58;;;23.10;99.90;;;;;;6218960;22;20360;-90
2023/10/02 12:15:17;;;;;;;28.15;19.38;;;23.10;99.90;;;;;;6217417;22;20762;-94
2023/10/02 12:17:43;;;;;;;27.73;20.07;;;23.10;99.90;;;;;;6244506;22;20697;-93
2023/10/02 12:20:16;;;;;;;29.25;21.65;;;23.50;99.90;;;;;;6217547;22;20368;-93
2023/10/02 12:22:46;;;;;;;26.87;19.53;;;23.50;99.90;;;;;;6219693;22;20758;-94
2023/10/02 12:25:12;;;;;;;30.05;20.88;;;23.30;99.90;;;;;;6218043;22;20856;-94
2023/10/02 12:27:41;;;;;;;28.08;19.67;;;23.20;99.90;;;;;;6243862;22;20378;-93
2023/10/02 12:30:11;;;;;;;27.73;19.53;;;23.20;99.90;;;;;;6244593;22;20372;-92
2023/10/02 12:32:38;;;;;;;29.52;20.95;;;23.20;99.90;;;;;;6242703;22;20395;-92
2023/10/02 12:35:05;;;;;;;27.95;20.98;;;23.50;99.90;;;;;;6244502;22;20364;-93
2023/10/02 12:37:32;;;;;;;28.48;21.75;;;23.20;99.90;;;;;;6242459;22;20702;-92
2023/10/02 12:39:58;;;;;;;28.35;21.23;;;23.10;99.90;;;;;;6244056;22;20380;-94
2023/10/02 12:42:25;;;;;;;30.80;22.65;;;23.10;99.90;;;;;;6243222;22;20400;-94
2023/10/02 12:44:53;;;;;;;31.13;22.25;;;23.30;99.90;;;;;;6218192;22;20372;-93
2023/10/02 12:47:19;;;;;;;31.08;21.88;;;23.20;99.90;;;;;;6244281;22;20425;-93
2023/10/02 12:49:45;;;;;;;31.35;22.20;;;23.10;99.90;;;;;;6242758;22;20368;-93
2023/10/02 12:52:11;;;;;;;29.47;21.23;;;22.90;99.90;;;;;;6244540;22;20378;-93
2023/10/02 12:54:37;;;;;;;28.42;20.15;;;23.00;99.90;;;;;;6242673;22;20364;-94
2023/10/02 12:57:05;;;;;;;30.75;22.25;;;23.30;99.90;;;;;;6244749;22;20800;-93
2023/10/02 12:59:30;;;;;;;30.50;21.60;;;22.90;99.90;;;;;;6242649;22;20399;-93
2023/10/02 13:01:56;;;;;;;32.25;22.60;;;22.80;99.90;;;;;;6244012;22;20726;-93
2023/10/02 13:04:23;;;;;;;29.77;21.47;;;23.10;99.90;;;;;;6218765;22;20369;-93
2023/10/02 13:06:49;;;;;;;28.30;21.42;;;22.80;99.90;;;;;;6242609;22;20383;-94
2023/10/02 13:09:15;;;;;;;27.92;20.73;;;22.70;99.90;;;;;;6243882;22;20361;-93
2023/10/02 13:11:44;;;;;;;26.38;18.85;;;22.80;99.90;;;;;;6217135;22;20369;-93
2023/10/02 13:14:16;;;;;;;24.60;18.03;;;22.80;99.90;;;;;;6244049;22;20368;-92
2023/10/02 13:16:43;;;;;;;25.73;17.60;;;22.80;99.90;;;;;;6242283;22;20683;-92
2023/10/02 13:19:09;;;;;;;24.92;16.30;;;22.80;99.90;;;;;;6244032;22;20379;-94
2023/10/02 13:21:37;;;;;;;22.02;15.35;;;22.80;99.90;;;;;;6242938;22;20392;-91
2023/10/02 13:24:05;;;;;;;22.42;15.93;;;22.80;99.90;;;;;;6242770;22;20694;-92
2023/10/02 13:26:31;;;;;;;24.33;15.45;;;22.90;99.90;;;;;;6249146;22;20530;-93
2023/10/02 13:28:56;;;;;;;23.17;15.15;;;23.00;99.90;;;;;;6247317;22;20395;-93
2023/10/02 13:31:24;;;;;;;23.27;15.37;;;23.00;99.90;;;;;;6274803;22;20382;-93
2023/10/02 13:33:52;;;;;;;22.50;15.23;;;23.10;99.90;;;;;;6273006;22;20387;-92
2023/10/02 13:36:22;;;;;;;22.40;15.43;;;23.20;99.90;;;;;;6248761;22;20377;-93
2023/10/02 13:38:53;;;;;;;24.40;15.65;;;23.20;99.90;;;;;;6247796;22;20795;-93
2023/10/02 13:41:19;;;;;;;25.77;16.40;;;23.40;99.90;;;;;;6247392;22;20387;-92